createdAt,value
2023-07-18T00:00:26.558Z,97762.12
2023-07-18T00:03:16.453Z,97763.07
2023-07-18T00:05:44.925Z,97762.31
2023-07-18T00:08:12.700Z,97764.13
2023-07-18T00:10:40.875Z,97761.89
2023-07-18T00:13:10.191Z,97764.91
2023-07-18T00:15:38.338Z,97766.98
2023-07-18T00:18:08.004Z,97766.25
2023-07-18T00:20:35.874Z,97767.70
2023-07-18T00:23:04.749Z,97772.84
2023-07-18T00:25:34.785Z,97773.07
2023-07-18T00:28:04.018Z,97778.14
2023-07-18T00:30:31.715Z,97781.09
2023-07-18T00:33:01.819Z,97784.17
2023-07-18T00:35:29.890Z,97785.92
2023-07-18T00:38:01.185Z,97788.95
2023-07-18T00:40:29.584Z,97793.30
2023-07-18T00:42:58.086Z,97798.21
2023-07-18T00:45:27.593Z,97802.02
2023-07-18T00:47:56.613Z,97802.19
2023-07-18T00:50:24.647Z,97804.41
2023-07-18T00:52:55.778Z,97807.11
2023-07-18T00:55:24.328Z,97814.80
2023-07-18T00:57:59.133Z,97821.06
2023-07-18T01:00:28.791Z,97828.60
2023-07-18T01:02:56.980Z,97837.16
2023-07-18T01:05:25.488Z,97842.23
2023-07-18T01:07:54.248Z,97855.32
2023-07-18T01:10:28.631Z,97860.08
2023-07-18T01:13:00.019Z,97863.23
2023-07-18T01:15:34.049Z,97866.09
2023-07-18T01:18:10.158Z,97867.42
2023-07-18T01:20:41.465Z,97872.41
2023-07-18T01:23:09.306Z,97872.64
2023-07-18T01:25:38.405Z,97875.73
2023-07-18T01:28:07.790Z,97873.98
2023-07-18T01:30:35.906Z,97873.57
2023-07-18T01:33:05.393Z,97868.89
2023-07-18T01:35:33.819Z,97868.33
2023-07-18T01:38:01.702Z,97871.40
2023-07-18T01:40:32.283Z,97870.65
2023-07-18T01:43:01.796Z,97869.02
2023-07-18T01:45:29.880Z,97871.31
2023-07-18T01:47:58.180Z,97871.94
2023-07-18T01:50:26.721Z,97868.85
2023-07-18T01:52:54.666Z,97874.62
2023-07-18T01:55:23.856Z,97877.95
2023-07-18T01:57:52.087Z,97870.41
2023-07-18T02:00:21.412Z,97867.95
2023-07-18T02:02:54.230Z,97873.48
2023-07-18T02:05:25.694Z,97878.45
2023-07-18T02:07:53.811Z,97874.49
2023-07-18T02:10:22.526Z,97879.32
2023-07-18T02:12:53.372Z,97881.92
2023-07-18T02:15:22.861Z,97878.91
2023-07-18T02:17:52.374Z,97881.23
2023-07-18T02:20:20.784Z,97885.80
2023-07-18T02:22:48.471Z,97892.54
2023-07-18T02:25:18.087Z,97905.42
2023-07-18T02:27:49.391Z,97910.87
2023-07-18T02:30:17.666Z,97904.92
2023-07-18T02:32:46.661Z,97900.48
2023-07-18T02:35:18.837Z,97905.94
2023-07-18T02:37:47.490Z,97907.90
2023-07-18T02:40:18.110Z,97915.42
2023-07-18T02:42:46.660Z,97918.41
2023-07-18T02:45:15.015Z,97927.18
2023-07-18T02:47:44.411Z,97935.48
2023-07-18T02:50:13.124Z,97935.70
2023-07-18T02:52:40.804Z,97940.35
2023-07-18T02:55:09.981Z,97943.19
2023-07-18T02:57:39.503Z,97947.60
2023-07-18T03:00:21.550Z,97946.86
2023-07-18T03:02:50.737Z,97953.95
2023-07-18T03:05:23.132Z,97957.32
2023-07-18T03:07:53.837Z,97957.47
2023-07-18T03:10:25.063Z,97958.70
2023-07-18T03:12:54.006Z,97956.05
2023-07-18T03:15:22.390Z,97960.98
2023-07-18T03:17:51.315Z,97967.41
2023-07-18T03:20:20.911Z,97977.40
2023-07-18T03:22:51.861Z,97977.64
2023-07-18T03:25:22.661Z,97980.98
2023-07-18T03:27:52.197Z,97983.27
2023-07-18T03:30:20.162Z,97983.05
2023-07-18T03:32:52.108Z,97980.38
2023-07-18T03:35:20.259Z,97986.10
2023-07-18T03:37:49.667Z,97990.39
2023-07-18T03:40:22.403Z,97988.10
2023-07-18T03:42:51.306Z,97990.56
2023-07-18T03:45:18.960Z,97991.70
2023-07-18T03:47:49.005Z,97990.61
2023-07-18T03:50:18.701Z,97996.60
2023-07-18T03:52:48.125Z,97998.21
2023-07-18T03:55:15.841Z,97996.89
2023-07-18T03:57:45.273Z,97999.25
2023-07-18T04:00:15.463Z,97994.05
2023-07-18T04:02:47.207Z,97992.58
2023-07-18T04:05:18.335Z,97991.25
2023-07-18T04:07:48.109Z,97992.54
2023-07-18T04:10:15.942Z,97990.23
2023-07-18T04:12:44.597Z,97987.94
2023-07-18T04:15:15.503Z,97986.98
2023-07-18T04:17:43.775Z,97988.17
2023-07-18T04:20:14.153Z,97992.77
2023-07-18T04:22:43.841Z,97987.60
2023-07-18T04:25:11.978Z,97982.36
2023-07-18T04:27:40.247Z,97982.21
2023-07-18T04:30:11.032Z,97982.83
2023-07-18T04:32:44.245Z,97991.36
2023-07-18T04:35:12.233Z,97991.02
2023-07-18T04:37:40.773Z,97993.17
2023-07-18T04:40:09.338Z,97992.00
2023-07-18T04:42:38.128Z,97989.73
2023-07-18T04:45:07.372Z,97996.09
2023-07-18T04:47:36.909Z,98001.82
2023-07-18T04:50:05.760Z,98000.30
2023-07-18T04:52:33.878Z,98001.19
2023-07-18T04:55:03.204Z,97999.48
2023-07-18T04:57:32.519Z,98002.44
2023-07-18T05:00:06.312Z,98008.88
2023-07-18T05:02:34.466Z,98003.74
2023-07-18T05:05:03.169Z,98008.89
2023-07-18T05:07:30.664Z,98002.81
2023-07-18T05:09:58.362Z,97997.14
2023-07-18T05:12:26.256Z,97995.24
2023-07-18T05:14:54.075Z,97995.89
2023-07-18T05:17:23.339Z,98000.98
2023-07-18T05:19:51.102Z,98005.05
2023-07-18T05:22:21.286Z,98001.17
2023-07-18T05:24:49.189Z,98005.17
2023-07-18T05:27:18.322Z,98005.61
2023-07-18T05:29:47.078Z,98008.96
2023-07-18T05:32:16.026Z,98017.29
2023-07-18T05:34:44.433Z,98021.99
2023-07-18T05:37:13.558Z,98027.95
2023-07-18T05:39:42.072Z,98027.00
2023-07-18T05:42:10.270Z,98040.35
2023-07-18T05:44:37.942Z,98043.05
2023-07-18T05:47:06.732Z,98043.93
2023-07-18T05:49:35.329Z,98046.25
2023-07-18T05:52:03.147Z,98043.00
2023-07-18T05:54:31.803Z,98049.84
2023-07-18T05:57:01.002Z,98050.40
2023-07-18T05:59:31.638Z,98055.89
2023-07-18T06:02:00.129Z,98059.05
2023-07-18T06:04:28.611Z,98069.12
2023-07-18T06:06:57.742Z,98065.70
2023-07-18T06:09:26.489Z,98069.98
2023-07-18T06:11:54.589Z,98073.13
2023-07-18T06:14:27.561Z,98075.42
2023-07-18T06:16:57.887Z,98076.70
2023-07-18T06:19:27.499Z,98074.83
2023-07-18T06:21:55.909Z,98072.58
2023-07-18T06:24:25.293Z,98075.11
2023-07-18T06:26:53.297Z,98080.89
2023-07-18T06:29:21.994Z,98075.64
2023-07-18T06:31:50.084Z,98069.89
2023-07-18T06:34:18.712Z,98069.20
2023-07-18T06:36:47.564Z,98064.35
2023-07-18T06:39:17.498Z,98066.63
2023-07-18T06:41:46.066Z,98067.53
2023-07-18T06:44:15.471Z,98067.33
2023-07-18T06:46:44.311Z,98066.51
2023-07-18T06:49:14.348Z,98059.02
2023-07-18T06:51:42.432Z,98062.59
2023-07-18T06:54:11.225Z,98064.08
2023-07-18T06:56:39.944Z,98063.41
2023-07-18T06:59:13.803Z,98066.39
2023-07-18T07:01:43.137Z,98068.27
2023-07-18T07:04:11.611Z,98068.21
2023-07-18T07:06:42.895Z,98071.27
2023-07-18T07:09:15.143Z,98072.30
2023-07-18T07:11:43.075Z,98071.45
2023-07-18T07:14:12.379Z,98072.02
2023-07-18T07:16:41.549Z,98068.41
2023-07-18T07:19:09.851Z,98075.89
2023-07-18T07:21:37.959Z,98076.78
2023-07-18T07:24:07.247Z,98073.28
2023-07-18T07:26:38.587Z,98075.36
2023-07-18T07:29:07.824Z,98071.38
2023-07-18T07:31:38.252Z,98073.00
2023-07-18T07:34:07.326Z,98073.73
2023-07-18T07:36:36.713Z,98078.08
2023-07-18T07:39:04.907Z,98067.97
2023-07-18T07:41:32.472Z,98068.75
2023-07-18T07:44:01.817Z,98072.41
2023-07-18T07:46:30.320Z,98071.98
2023-07-18T07:48:59.378Z,98071.64
2023-07-18T07:51:27.550Z,98062.98
2023-07-18T07:53:57.244Z,98065.59
2023-07-18T07:56:25.265Z,98067.48
2023-07-18T07:59:05.592Z,98072.52
2023-07-18T08:01:39.746Z,98065.85
2023-07-18T08:04:12.489Z,98065.50
2023-07-18T08:06:41.640Z,98065.63
2023-07-18T08:09:09.516Z,98073.34
2023-07-18T08:11:39.350Z,98074.42
2023-07-18T08:14:08.370Z,98066.56
2023-07-18T08:16:38.112Z,98066.56
2023-07-18T08:19:12.578Z,98075.96
2023-07-18T08:21:40.087Z,98083.42
2023-07-18T08:24:08.206Z,98080.00
2023-07-18T08:26:36.061Z,98074.61
2023-07-18T08:29:09.868Z,98075.65
2023-07-18T08:31:38.388Z,98075.45
2023-07-18T08:34:08.012Z,98072.04
2023-07-18T08:36:36.787Z,98076.34
2023-07-18T08:39:11.832Z,98077.36
2023-07-18T08:41:47.181Z,98076.55
2023-07-18T08:44:17.262Z,98076.14
2023-07-18T08:46:47.600Z,98078.93
2023-07-18T08:49:18.560Z,98074.01
2023-07-18T08:51:49.186Z,98079.69
2023-07-18T08:54:17.908Z,98083.05
2023-07-18T08:56:45.464Z,98080.86
2023-07-18T08:59:13.964Z,98083.74
2023-07-18T09:01:49.748Z,98084.73
2023-07-18T09:04:20.774Z,98086.07
2023-07-18T09:06:50.744Z,98090.42
2023-07-18T09:09:21.861Z,98087.95
2023-07-18T09:12:16.406Z,98090.83
2023-07-18T09:14:44.363Z,98083.86
2023-07-18T09:17:12.909Z,98086.46
2023-07-18T09:19:50.015Z,98090.08
2023-07-18T09:22:18.969Z,98094.34
2023-07-18T09:24:49.309Z,98092.89
2023-07-18T09:27:20.881Z,98091.17
2023-07-18T09:29:50.293Z,98096.41
2023-07-18T09:32:24.869Z,98095.59
2023-07-18T09:34:55.493Z,98089.74
2023-07-18T09:37:24.069Z,98093.60
2023-07-18T09:39:53.692Z,98089.44
2023-07-18T09:42:23.983Z,98088.79
2023-07-18T09:44:54.063Z,98091.34
2023-07-18T09:47:23.444Z,98083.20
2023-07-18T09:49:52.090Z,98085.44
2023-07-18T09:52:26.644Z,98080.20
2023-07-18T09:54:58.391Z,98073.19
2023-07-18T09:57:27.190Z,98068.43
2023-07-18T09:59:58.926Z,98070.61
2023-07-18T10:02:27.879Z,98075.08
2023-07-18T10:04:56.998Z,98073.96
2023-07-18T10:07:26.347Z,98069.46
2023-07-18T10:09:55.398Z,98069.20
2023-07-18T10:12:24.274Z,98065.45
2023-07-18T10:14:58.256Z,98059.32
2023-07-18T10:17:32.514Z,98062.41
2023-07-18T10:20:20.922Z,98055.81
2023-07-18T10:22:55.635Z,98057.83
2023-07-18T10:25:30.428Z,98064.00
2023-07-18T10:28:01.066Z,98064.98
2023-07-18T10:30:42.569Z,98066.45
2023-07-18T10:33:10.751Z,98066.83
2023-07-18T10:35:46.318Z,98064.02
2023-07-18T10:38:15.215Z,98061.76
2023-07-18T10:40:45.719Z,98066.48
2023-07-18T10:43:18.986Z,98063.61
2023-07-18T10:45:47.315Z,98061.14
2023-07-18T10:48:21.329Z,98054.98
2023-07-18T10:50:49.617Z,98057.56
2023-07-18T10:53:20.495Z,98052.38
2023-07-18T10:55:49.827Z,98052.71
2023-07-18T10:58:21.387Z,98052.66
2023-07-18T11:00:50.964Z,98051.56
2023-07-18T11:03:28.169Z,98050.41
2023-07-18T11:05:56.349Z,98055.52
2023-07-18T11:08:27.009Z,98054.09
2023-07-18T11:11:05.231Z,98058.20
2023-07-18T11:13:38.154Z,98055.15
2023-07-18T11:16:17.415Z,98055.52
2023-07-18T11:18:46.969Z,98055.75
2023-07-18T11:21:19.781Z,98056.59
2023-07-18T11:23:48.900Z,98051.70
2023-07-18T11:26:19.969Z,98052.52
2023-07-18T11:28:51.836Z,98051.67
2023-07-18T11:34:02.861Z,98048.60
2023-07-18T11:36:33.871Z,98039.53
2023-07-18T11:39:02.266Z,98030.54
2023-07-18T11:41:33.378Z,98043.92
2023-07-18T11:44:07.064Z,98044.92
2023-07-18T11:46:48.043Z,98041.09
2023-07-18T11:49:17.199Z,98037.81
2023-07-18T11:51:44.784Z,98035.69
2023-07-18T11:54:13.812Z,98026.89
2023-07-18T11:56:41.833Z,98035.17
2023-07-18T11:59:10.058Z,98039.95
2023-07-18T12:01:39.009Z,98040.20
2023-07-18T12:04:13.409Z,98043.20
2023-07-18T12:06:41.992Z,98033.90
2023-07-18T12:09:10.235Z,98028.80
2023-07-18T12:11:39.668Z,98025.41
2023-07-18T12:14:09.907Z,98027.04
2023-07-18T12:16:39.691Z,98026.01
2023-07-18T12:19:07.269Z,98022.92
2023-07-18T12:21:37.403Z,98017.45
2023-07-18T12:24:05.394Z,98016.30
2023-07-18T12:26:33.568Z,98012.45
2023-07-18T12:29:01.528Z,98003.85
2023-07-18T12:31:33.972Z,98003.57
2023-07-18T12:34:03.551Z,98003.24
2023-07-18T12:36:31.174Z,98000.36
2023-07-18T12:38:59.794Z,97998.09
2023-07-18T12:41:28.697Z,97990.36
2023-07-18T12:43:56.774Z,97992.80
2023-07-18T12:46:27.744Z,97995.43
2023-07-18T12:49:03.721Z,97991.84
2023-07-18T12:51:32.160Z,97987.48
2023-07-18T12:54:01.580Z,97987.13
2023-07-18T12:56:34.505Z,97985.85
2023-07-18T12:59:03.045Z,97983.36
2023-07-18T13:01:31.244Z,97988.17
2023-07-18T13:04:00.424Z,97978.20
2023-07-18T13:06:28.907Z,97968.27
2023-07-18T13:08:57.586Z,97965.40
2023-07-18T13:11:25.548Z,97968.64
2023-07-18T13:13:53.781Z,97969.38
2023-07-18T13:16:22.050Z,97971.18
2023-07-18T13:18:51.196Z,97967.60
2023-07-18T13:21:19.280Z,97964.92
2023-07-18T13:23:47.115Z,97960.09
2023-07-18T13:26:19.570Z,97964.45
2023-07-18T13:28:48.765Z,97961.31
2023-07-18T13:31:17.452Z,97964.48
2023-07-18T13:33:46.225Z,97958.10
2023-07-18T13:36:15.233Z,97957.48
2023-07-18T13:38:43.091Z,97950.97
2023-07-18T13:41:11.964Z,97949.92
2023-07-18T13:43:40.510Z,97955.36
2023-07-18T13:46:09.088Z,97955.89
2023-07-18T13:48:38.900Z,97958.05
2023-07-18T13:51:06.661Z,97950.49
2023-07-18T13:53:35.121Z,97948.29
2023-07-18T13:56:03.665Z,97939.64
2023-07-18T13:58:32.072Z,97932.48
2023-07-18T14:01:00.320Z,97930.46
2023-07-18T14:03:34.259Z,97926.91
2023-07-18T14:06:04.854Z,97923.38
2023-07-18T14:08:33.889Z,97921.77
2023-07-18T14:11:03.455Z,97922.09
2023-07-18T14:13:32.128Z,97920.89
2023-07-18T14:16:00.174Z,97919.67
2023-07-18T14:18:28.627Z,97915.52
2023-07-18T14:20:57.076Z,97913.78
2023-07-18T14:23:25.280Z,97916.23
2023-07-18T14:25:53.594Z,97914.20
2023-07-18T14:28:21.835Z,97904.84
2023-07-18T14:30:49.892Z,97903.98
2023-07-18T14:33:19.235Z,97900.71
2023-07-18T14:35:47.193Z,97899.33
2023-07-18T14:38:15.523Z,97899.67
2023-07-18T14:40:44.122Z,97897.50
2023-07-18T14:43:12.557Z,97899.73
2023-07-18T14:45:40.891Z,97894.91
2023-07-18T14:48:09.468Z,97892.31
2023-07-18T14:50:38.608Z,97890.64
2023-07-18T14:53:08.180Z,97892.92
2023-07-18T14:55:36.995Z,97891.23
2023-07-18T14:58:04.936Z,97891.79
2023-07-18T15:00:33.862Z,97892.89
2023-07-18T15:03:02.612Z,97890.09
2023-07-18T15:05:31.456Z,97890.41
2023-07-18T15:07:59.784Z,97892.50
2023-07-18T15:10:27.704Z,97889.44
2023-07-18T15:12:56.174Z,97886.67
2023-07-18T15:15:23.744Z,97879.55
2023-07-18T15:17:52.205Z,97880.91
2023-07-18T15:20:20.393Z,97880.06
2023-07-18T15:22:52.428Z,97882.99
2023-07-18T15:25:20.231Z,97879.13
2023-07-18T15:27:48.724Z,97879.23
2023-07-18T15:30:16.820Z,97882.09
2023-07-18T15:32:47.315Z,97881.23
2023-07-18T15:35:15.492Z,97880.73
2023-07-18T15:37:43.355Z,97883.36
2023-07-18T15:40:12.836Z,97878.48
2023-07-18T15:42:42.121Z,97878.38
2023-07-18T15:45:10.666Z,97881.98
2023-07-18T15:47:39.092Z,97883.91
2023-07-18T15:50:10.528Z,97882.11
2023-07-18T15:52:38.349Z,97875.11
2023-07-18T15:55:06.837Z,97876.38
2023-07-18T15:57:34.615Z,97876.30
2023-07-18T16:00:04.271Z,97876.83
2023-07-18T16:02:36.275Z,97872.76
2023-07-18T16:05:08.674Z,97871.38
2023-07-18T16:07:36.816Z,97870.80
2023-07-18T16:10:05.135Z,97870.52
2023-07-18T16:12:33.263Z,97868.97
2023-07-18T16:15:01.070Z,97871.97
2023-07-18T16:17:30.032Z,97874.06
2023-07-18T16:19:58.306Z,97871.44
2023-07-18T16:22:26.182Z,97867.60
2023-07-18T16:24:54.196Z,97870.09
2023-07-18T16:27:22.018Z,97867.95
2023-07-18T16:29:50.204Z,97864.93
2023-07-18T16:32:17.994Z,97866.27
2023-07-18T16:34:46.865Z,97866.66
2023-07-18T16:37:14.583Z,97864.89
2023-07-18T16:39:42.815Z,97862.05
2023-07-18T16:42:23.451Z,97863.59
2023-07-18T16:44:53.780Z,97862.65
2023-07-18T16:47:22.765Z,97867.81
2023-07-18T16:49:51.660Z,97864.31
2023-07-18T16:52:20.766Z,97861.90
2023-07-18T16:54:48.675Z,97862.96
2023-07-18T16:57:17.432Z,97865.36
2023-07-18T16:59:45.061Z,97863.96
2023-07-18T17:02:13.190Z,97863.05
2023-07-18T17:04:41.053Z,97862.99
2023-07-18T17:07:08.575Z,97856.97
2023-07-18T17:09:36.911Z,97852.55
2023-07-18T17:12:06.026Z,97850.89
2023-07-18T17:14:34.053Z,97852.47
2023-07-18T17:17:01.936Z,97847.37
2023-07-18T17:19:29.833Z,97846.41
2023-07-18T17:21:58.290Z,97846.89
2023-07-18T17:24:26.810Z,97845.25
2023-07-18T17:26:55.222Z,97845.25
2023-07-18T17:29:23.232Z,97847.99
2023-07-18T17:31:51.476Z,97847.67
2023-07-18T17:34:19.202Z,97850.55
2023-07-18T17:36:53.319Z,97849.15
2023-07-18T17:39:24.508Z,97851.19
2023-07-18T17:41:52.369Z,97846.28
2023-07-18T17:44:20.797Z,97845.92
2023-07-18T17:46:49.423Z,97846.30
2023-07-18T17:49:17.274Z,97842.72
2023-07-18T17:51:45.263Z,97844.92
2023-07-18T17:54:13.381Z,97841.05
2023-07-18T17:56:41.347Z,97843.80
2023-07-18T17:59:09.315Z,97845.85
2023-07-18T18:01:37.840Z,97847.96
2023-07-18T18:04:07.581Z,97846.58
2023-07-18T18:06:35.578Z,97853.67
2023-07-18T18:09:06.152Z,97859.50
2023-07-18T18:11:35.804Z,97863.33
2023-07-18T18:14:04.144Z,97872.34
2023-07-18T18:16:32.661Z,97873.30
2023-07-18T18:19:00.559Z,97870.76
2023-07-18T18:21:28.000Z,97873.10
2023-07-18T18:23:55.984Z,97878.11
2023-07-18T18:26:24.234Z,97879.94
2023-07-18T18:28:53.848Z,97883.42
2023-07-18T18:31:21.816Z,97886.30
2023-07-18T18:33:50.004Z,97891.46
2023-07-18T18:36:25.022Z,97893.80
2023-07-18T18:38:52.944Z,97893.48
2023-07-18T18:41:21.383Z,97898.23
2023-07-18T18:43:50.253Z,97903.75
2023-07-18T18:46:18.054Z,97908.55
2023-07-18T18:48:46.049Z,97907.10
2023-07-18T18:51:14.507Z,97910.95
2023-07-18T18:53:42.846Z,97909.38
2023-07-18T18:56:12.282Z,97913.69
2023-07-18T18:58:40.676Z,97913.91
2023-07-18T19:01:08.618Z,97913.98
2023-07-18T19:03:36.504Z,97917.65
2023-07-18T19:06:04.292Z,97919.95
2023-07-18T19:08:32.229Z,97926.17
2023-07-18T19:11:22.160Z,97922.30
2023-07-18T19:13:50.727Z,97917.27
2023-07-18T19:16:32.862Z,97924.46
2023-07-18T19:19:08.721Z,97926.45
2023-07-18T19:21:36.687Z,97931.23
2023-07-18T19:24:05.057Z,97929.38
2023-07-18T19:26:33.424Z,97929.17
2023-07-18T19:29:02.594Z,97932.16
2023-07-18T19:31:30.120Z,97931.11
2023-07-18T19:33:58.075Z,97937.64
2023-07-18T19:36:26.568Z,97932.50
2023-07-18T19:38:55.615Z,97936.63
2023-07-18T19:41:25.229Z,97933.87
2023-07-18T19:43:52.966Z,97928.33
2023-07-18T19:46:23.812Z,97927.00
2023-07-18T19:48:51.831Z,97928.84
2023-07-18T19:51:20.028Z,97930.36
2023-07-18T19:53:48.247Z,97921.52
2023-07-18T19:56:17.288Z,97908.05
2023-07-18T19:58:45.975Z,97913.64
2023-07-18T20:01:15.739Z,97915.56
2023-07-18T20:03:57.897Z,97918.98
2023-07-18T20:06:28.745Z,97928.88
2023-07-18T20:08:57.313Z,97931.96
2023-07-18T20:11:25.155Z,97933.66
2023-07-18T20:13:53.574Z,97937.48
2023-07-18T20:16:22.987Z,97942.39
2023-07-18T20:18:55.482Z,97942.86
2023-07-18T20:21:27.407Z,97948.81
2023-07-18T20:23:56.623Z,97948.98
2023-07-18T20:26:26.347Z,97944.52
2023-07-18T20:28:54.421Z,97945.80
2023-07-18T20:31:22.700Z,97940.24
2023-07-18T20:33:50.801Z,97931.84
2023-07-18T20:36:19.015Z,97927.30
2023-07-18T20:38:48.039Z,97929.33
2023-07-18T20:41:16.289Z,97924.08
2023-07-18T20:43:48.495Z,97925.81
2023-07-18T20:46:17.577Z,97924.53
2023-07-18T20:48:45.507Z,97921.52
2023-07-18T20:51:13.312Z,97917.61
2023-07-18T20:53:41.262Z,97917.13
2023-07-18T20:56:09.144Z,97915.28
2023-07-18T20:58:37.446Z,97921.23
2023-07-18T21:01:05.202Z,97913.21
2023-07-18T21:03:34.112Z,97910.05
2023-07-18T21:06:03.468Z,97913.14
2023-07-18T21:08:31.730Z,97912.83
2023-07-18T21:11:00.157Z,97916.96
2023-07-18T21:13:28.060Z,97914.98
2023-07-18T21:15:56.119Z,97913.23
